Time;durP1;ratioP1;P1;durP2;ratioP2;P2;SDS_P1;SDS_P2;PMS_P1;PMS_P2;Temp;Humidity;BMP_temperature;BMP_pressure;BME280_temperature;BME280_humidity;BME280_pressure;Samples;Min_cycle;Max_cycle;Signal;HPM_P1;HPM_P2
2023/08/30 00:01:14;;;;;;;5.83;3.90;;;;;;;;;;4916041;29;20882;-67
2023/08/30 00:03:41;;;;;;;4.70;2.83;;;;;;;;;;4906889;29;20449;-68
2023/08/30 00:06:08;;;;;;;5.13;2.67;;;;;;;;;;4916922;29;20453;-67
2023/08/30 00:08:37;;;;;;;4.10;2.57;;;;;;;;;;4906272;29;20536;-67
2023/08/30 00:11:04;;;;;;;4.40;2.80;;;;;;;;;;4914592;29;20452;-67
2023/08/30 00:13:33;;;;;;;4.87;3.60;;;;;;;;;;4916939;29;20508;-68
2023/08/30 00:16:02;;;;;;;6.20;4.47;;;;;;;;;;4916914;29;20845;-68
2023/08/30 00:18:29;;;;;;;4.10;2.73;;;;;;;;;;4916814;29;20891;-68
2023/08/30 00:20:56;;;;;;;5.03;3.13;;;;;;;;;;4916252;29;20449;-66
2023/08/30 00:23:23;;;;;;;5.10;3.57;;;;;;;;;;4916396;29;20531;-66
2023/08/30 00:25:50;;;;;;;4.13;3.20;;;;;;;;;;4916175;29;20547;-67
2023/08/30 00:28:18;;;;;;;5.10;3.20;;;;;;;;;;4916378;29;20471;-66
2023/08/30 00:30:46;;;;;;;4.37;2.80;;;;;;;;;;4916278;29;20803;-67
2023/08/30 00:33:13;;;;;;;3.67;3.00;;;;;;;;;;4916594;29;20479;-67
2023/08/30 00:35:40;;;;;;;4.57;3.27;;;;;;;;;;4904147;29;20453;-68
2023/08/30 00:38:07;;;;;;;4.43;3.20;;;;;;;;;;4916032;29;20488;-66
2023/08/30 00:40:44;;;;;;;3.87;2.77;;;;;;;;;;4914866;29;20842;-67
2023/08/30 00:43:11;;;;;;;4.40;3.00;;;;;;;;;;4915879;29;20445;-67
2023/08/30 00:45:39;;;;;;;6.10;3.43;;;;;;;;;;4916130;29;20968;-68
2023/08/30 00:48:08;;;;;;;4.40;3.60;;;;;;;;;;4916493;29;20437;-67
2023/08/30 00:50:35;;;;;;;3.90;3.07;;;;;;;;;;4916100;29;20544;-69
2023/08/30 00:53:05;;;;;;;5.47;3.20;;;;;;;;;;4915908;29;20461;-67
2023/08/30 00:55:32;;;;;;;4.83;3.33;;;;;;;;;;4906830;29;20459;-67
2023/08/30 00:57:59;;;;;;;4.40;3.00;;;;;;;;;;4914357;29;20862;-66
2023/08/30 01:00:27;;;;;;;5.00;3.13;;;;;;;;;;4914890;29;20480;-68
2023/08/30 01:02:54;;;;;;;4.40;2.80;;;;;;;;;;4915768;29;20448;-68
2023/08/30 01:05:23;;;;;;;4.00;2.87;;;;;;;;;;4916080;29;20449;-69
2023/08/30 01:07:50;;;;;;;4.80;3.43;;;;;;;;;;4915939;29;20531;-67
2023/08/30 01:10:17;;;;;;;4.10;3.00;;;;;;;;;;4915541;29;20468;-65
2023/08/30 01:12:47;;;;;;;4.60;3.37;;;;;;;;;;4915972;29;20457;-68
2023/08/30 01:15:17;;;;;;;3.87;3.20;;;;;;;;;;4915037;29;20488;-68
2023/08/30 01:17:44;;;;;;;4.57;3.40;;;;;;;;;;4914699;29;21065;-66
2023/08/30 01:20:14;;;;;;;6.70;3.50;;;;;;;;;;4914903;29;20472;-68
2023/08/30 01:22:49;;;;;;;4.70;3.20;;;;;;;;;;4903321;29;20585;-68
2023/08/30 01:25:19;;;;;;;4.47;3.30;;;;;;;;;;4915734;29;20455;-68
2023/08/30 01:27:48;;;;;;;4.93;3.53;;;;;;;;;;4915577;29;20448;-69
2023/08/30 01:30:16;;;;;;;5.07;3.03;;;;;;;;;;4913351;29;20550;-68
2023/08/30 01:32:44;;;;;;;3.33;2.87;;;;;;;;;;4904786;29;20832;-68
2023/08/30 01:35:16;;;;;;;4.10;2.77;;;;;;;;;;4913952;29;20449;-66
2023/08/30 01:37:44;;;;;;;5.00;3.60;;;;;;;;;;4913423;29;20500;-68
2023/08/30 01:40:12;;;;;;;6.87;3.33;;;;;;;;;;4915269;29;20469;-68
2023/08/30 01:42:39;;;;;;;4.60;3.40;;;;;;;;;;4915507;29;20453;-68
2023/08/30 01:45:10;;;;;;;5.60;3.97;;;;;;;;;;4914837;29;20866;-68
2023/08/30 01:47:38;;;;;;;4.23;3.00;;;;;;;;;;4915161;29;20520;-69
2023/08/30 01:50:07;;;;;;;4.07;2.90;;;;;;;;;;4914810;29;20467;-66
2023/08/30 01:52:35;;;;;;;4.50;3.13;;;;;;;;;;4913682;29;20540;-67
2023/08/30 01:55:03;;;;;;;5.40;3.73;;;;;;;;;;4914971;29;20452;-67
2023/08/30 01:57:30;;;;;;;5.30;2.97;;;;;;;;;;4914918;29;20488;-67
2023/08/30 01:59:58;;;;;;;6.67;4.07;;;;;;;;;;4915140;29;20472;-68
2023/08/30 02:02:29;;;;;;;4.70;3.03;;;;;;;;;;4915199;29;20448;-67
2023/08/30 02:04:56;;;;;;;4.00;2.60;;;;;;;;;;4915666;29;20452;-67
2023/08/30 02:07:26;;;;;;;4.37;3.83;;;;;;;;;;4915572;29;20460;-67
2023/08/30 02:09:59;;;;;;;5.00;3.40;;;;;;;;;;4913593;29;20940;-68
2023/08/30 02:12:29;;;;;;;5.27;3.00;;;;;;;;;;4914702;29;20455;-68
2023/08/30 02:14:57;;;;;;;5.70;3.40;;;;;;;;;;4896149;29;20445;-67
2023/08/30 02:17:25;;;;;;;5.20;3.20;;;;;;;;;;4911835;29;20499;-67
2023/08/30 02:19:54;;;;;;;4.90;2.90;;;;;;;;;;4914840;29;20472;-68
2023/08/30 02:22:21;;;;;;;3.50;2.80;;;;;;;;;;4914808;29;20460;-67
2023/08/30 02:24:48;;;;;;;4.40;2.97;;;;;;;;;;4914663;29;20458;-66
2023/08/30 02:27:15;;;;;;;3.90;3.10;;;;;;;;;;4913629;29;20441;-66
2023/08/30 02:29:42;;;;;;;5.00;3.23;;;;;;;;;;4913745;29;20507;-66
2023/08/30 02:32:10;;;;;;;3.63;2.73;;;;;;;;;;4914679;29;20456;-67
2023/08/30 02:34:39;;;;;;;4.87;3.30;;;;;;;;;;4914826;29;20453;-67
2023/08/30 02:37:10;;;;;;;4.13;3.47;;;;;;;;;;4914324;29;20866;-67
2023/08/30 02:39:37;;;;;;;4.07;3.27;;;;;;;;;;4913933;29;20500;-66
2023/08/30 02:42:05;;;;;;;5.30;3.53;;;;;;;;;;4913887;29;20448;-67
2023/08/30 02:44:32;;;;;;;3.90;3.03;;;;;;;;;;4913117;29;20452;-67
2023/08/30 02:46:59;;;;;;;3.90;3.07;;;;;;;;;;4909663;29;20448;-68
2023/08/30 02:49:26;;;;;;;4.47;2.90;;;;;;;;;;4914811;29;20468;-66
2023/08/30 02:51:53;;;;;;;4.67;3.50;;;;;;;;;;4914754;29;20456;-68
2023/08/30 02:54:24;;;;;;;4.47;2.40;;;;;;;;;;4914423;29;20453;-67
2023/08/30 02:56:51;;;;;;;6.43;3.00;;;;;;;;;;4910689;29;20519;-68
2023/08/30 02:59:18;;;;;;;3.33;2.30;;;;;;;;;;4910853;29;20515;-68
2023/08/30 03:01:45;;;;;;;4.10;3.33;;;;;;;;;;4913708;29;20539;-68
2023/08/30 03:04:12;;;;;;;7.77;2.80;;;;;;;;;;4913696;29;20804;-66
2023/08/30 03:06:39;;;;;;;5.17;3.27;;;;;;;;;;4914325;29;20483;-67
2023/08/30 03:09:07;;;;;;;4.63;3.00;;;;;;;;;;4914197;29;20461;-69
2023/08/30 03:11:38;;;;;;;4.87;2.80;;;;;;;;;;4914323;29;20472;-68
2023/08/30 03:14:06;;;;;;;4.40;2.57;;;;;;;;;;4914744;29;20484;-68
2023/08/30 03:16:33;;;;;;;6.27;3.13;;;;;;;;;;4914901;29;20929;-68
2023/08/30 03:19:00;;;;;;;4.33;2.73;;;;;;;;;;4914001;29;20504;-68
2023/08/30 03:21:27;;;;;;;3.90;2.60;;;;;;;;;;4917947;29;20875;-67
2023/08/30 03:23:54;;;;;;;7.20;3.07;;;;;;;;;;4916454;29;20769;-68
2023/08/30 03:26:21;;;;;;;4.20;2.50;;;;;;;;;;4917673;29;20456;-67
2023/08/30 03:28:50;;;;;;;4.23;2.80;;;;;;;;;;4917709;29;20464;-67
2023/08/30 03:31:20;;;;;;;3.80;2.60;;;;;;;;;;4918032;29;20860;-67
2023/08/30 03:33:47;;;;;;;5.93;3.27;;;;;;;;;;4917277;29;20488;-68
2023/08/30 03:36:15;;;;;;;4.77;3.30;;;;;;;;;;4916226;29;20551;-68
2023/08/30 03:38:42;;;;;;;4.30;2.40;;;;;;;;;;4917149;29;20944;-68
2023/08/30 03:41:09;;;;;;;5.27;3.40;;;;;;;;;;4916649;29;20448;-68
2023/08/30 03:43:36;;;;;;;3.90;2.77;;;;;;;;;;4917360;29;20455;-67
2023/08/30 03:46:05;;;;;;;5.50;3.87;;;;;;;;;;4917541;29;20567;-67
2023/08/30 03:48:34;;;;;;;4.43;2.53;;;;;;;;;;4917028;29;20449;-67
2023/08/30 03:51:03;;;;;;;4.30;3.27;;;;;;;;;;4917288;29;20945;-67
2023/08/30 03:53:33;;;;;;;4.40;2.80;;;;;;;;;;4905144;29;20448;-67
2023/08/30 03:56:00;;;;;;;4.70;3.43;;;;;;;;;;4917832;29;20448;-67
2023/08/30 03:58:27;;;;;;;5.03;3.63;;;;;;;;;;4916561;29;20491;-67
2023/08/30 04:00:54;;;;;;;7.83;3.80;;;;;;;;;;4915771;29;20452;-66
2023/08/30 04:03:23;;;;;;;5.40;3.43;;;;;;;;;;4917297;29;20444;-68
2023/08/30 04:05:56;;;;;;;5.47;3.43;;;;;;;;;;4917024;29;20963;-67
2023/08/30 04:08:23;;;;;;;9.10;2.60;;;;;;;;;;4917096;29;20457;-68
2023/08/30 04:10:53;;;;;;;4.30;3.30;;;;;;;;;;4917109;29;20447;-67
2023/08/30 04:13:20;;;;;;;5.60;3.57;;;;;;;;;;4917166;29;20471;-68
2023/08/30 04:15:49;;;;;;;5.83;4.03;;;;;;;;;;4916959;29;20875;-68
2023/08/30 04:18:17;;;;;;;5.63;3.03;;;;;;;;;;4915860;29;20524;-67
2023/08/30 04:20:48;;;;;;;4.93;3.13;;;;;;;;;;4915530;29;20451;-67
2023/08/30 04:23:16;;;;;;;5.37;3.33;;;;;;;;;;4917207;29;20571;-68
2023/08/30 04:25:43;;;;;;;4.83;3.40;;;;;;;;;;4916846;29;20448;-68
2023/08/30 04:28:10;;;;;;;4.77;2.80;;;;;;;;;;4916798;29;20444;-67
2023/08/30 04:30:38;;;;;;;4.73;3.13;;;;;;;;;;4916404;29;20465;-68
2023/08/30 04:33:05;;;;;;;5.20;3.07;;;;;;;;;;4916318;29;20505;-68
2023/08/30 04:35:33;;;;;;;4.77;2.80;;;;;;;;;;4916321;29;20452;-67
2023/08/30 04:38:02;;;;;;;4.73;3.47;;;;;;;;;;4915575;29;20487;-68
2023/08/30 04:40:31;;;;;;;5.30;3.43;;;;;;;;;;4916447;29;20469;-68
2023/08/30 04:42:58;;;;;;;4.47;3.00;;;;;;;;;;4916905;29;20449;-68
2023/08/30 04:45:25;;;;;;;4.37;3.07;;;;;;;;;;4916618;29;20454;-67
2023/08/30 04:47:52;;;;;;;5.77;2.90;;;;;;;;;;4916237;29;20471;-68
2023/08/30 04:50:20;;;;;;;5.43;3.57;;;;;;;;;;4916380;29;20469;-66
2023/08/30 04:52:47;;;;;;;6.00;4.33;;;;;;;;;;4915838;29;20827;-66
2023/08/30 04:55:15;;;;;;;8.70;4.10;;;;;;;;;;4911759;29;20449;-65
2023/08/30 04:57:44;;;;;;;4.17;3.13;;;;;;;;;;4915904;29;20567;-68
2023/08/30 05:00:12;;;;;;;5.00;4.27;;;;;;;;;;4915978;29;20983;-68
2023/08/30 05:02:39;;;;;;;7.20;4.20;;;;;;;;;;4916088;29;20444;-68
2023/08/30 05:05:07;;;;;;;4.67;3.50;;;;;;;;;;4915190;29;20444;-69
2023/08/30 05:07:34;;;;;;;5.20;3.50;;;;;;;;;;4901473;29;20480;-68
2023/08/30 05:10:01;;;;;;;5.53;3.40;;;;;;;;;;4914376;29;20465;-68
2023/08/30 05:12:29;;;;;;;5.03;3.13;;;;;;;;;;4915418;29;20455;-67
2023/08/30 05:14:56;;;;;;;7.43;4.20;;;;;;;;;;4915614;29;20457;-67
2023/08/30 05:17:23;;;;;;;6.43;3.77;;;;;;;;;;4915710;29;20452;-67
2023/08/30 05:19:50;;;;;;;5.40;3.70;;;;;;;;;;4915699;29;20848;-67
2023/08/30 05:22:18;;;;;;;5.37;3.73;;;;;;;;;;4915871;29;20453;-66
2023/08/30 05:24:45;;;;;;;6.53;3.90;;;;;;;;;;4915625;29;20797;-66
2023/08/30 05:27:14;;;;;;;5.63;3.33;;;;;;;;;;4902914;29;20529;-66
2023/08/30 05:29:42;;;;;;;6.97;4.33;;;;;;;;;;4914701;29;20477;-67
2023/08/30 05:32:10;;;;;;;5.00;3.30;;;;;;;;;;4915649;29;20512;-68
2023/08/30 05:34:37;;;;;;;6.20;4.07;;;;;;;;;;4911972;29;20514;-67
2023/08/30 05:37:04;;;;;;;5.63;4.37;;;;;;;;;;4913081;29;20509;-68
2023/08/30 05:39:31;;;;;;;3.90;2.90;;;;;;;;;;4915921;29;20502;-67
2023/08/30 05:41:58;;;;;;;5.60;4.10;;;;;;;;;;4915701;29;20448;-68
2023/08/30 05:44:27;;;;;;;5.23;2.90;;;;;;;;;;4915431;29;20449;-68
2023/08/30 05:46:55;;;;;;;4.60;3.43;;;;;;;;;;4915325;29;20472;-67
2023/08/30 05:49:22;;;;;;;5.87;4.10;;;;;;;;;;4914235;29;20475;-68
2023/08/30 05:51:49;;;;;;;5.47;3.77;;;;;;;;;;4916294;29;20463;-68
2023/08/30 05:54:16;;;;;;;4.70;3.13;;;;;;;;;;4915469;29;20456;-67
2023/08/30 05:56:43;;;;;;;6.07;4.17;;;;;;;;;;4915279;29;20955;-67
2023/08/30 05:59:11;;;;;;;7.20;3.93;;;;;;;;;;4915460;29;20496;-66
2023/08/30 06:01:38;;;;;;;6.07;4.60;;;;;;;;;;4915629;29;20552;-66
2023/08/30 06:04:06;;;;;;;4.57;2.73;;;;;;;;;;4914100;29;20535;-66
2023/08/30 06:06:33;;;;;;;4.63;3.80;;;;;;;;;;4914646;29;20970;-67
2023/08/30 06:09:01;;;;;;;4.50;3.03;;;;;;;;;;4915047;29;20461;-67
2023/08/30 06:11:28;;;;;;;5.30;3.40;;;;;;;;;;4915571;29;20835;-67
2023/08/30 06:13:55;;;;;;;4.13;2.80;;;;;;;;;;4917061;29;20436;-68
2023/08/30 06:16:22;;;;;;;5.30;3.30;;;;;;;;;;4919700;29;20547;-67
2023/08/30 06:18:49;;;;;;;5.67;4.60;;;;;;;;;;4918886;29;20488;-68
2023/08/30 06:21:17;;;;;;;4.50;3.27;;;;;;;;;;4919878;29;20464;-68
2023/08/30 06:23:45;;;;;;;5.00;2.87;;;;;;;;;;4916401;29;20451;-67
2023/08/30 06:26:12;;;;;;;6.37;4.17;;;;;;;;;;4914833;29;20449;-67
2023/08/30 06:28:40;;;;;;;6.80;3.80;;;;;;;;;;4916076;29;20461;-68
2023/08/30 06:31:07;;;;;;;3.77;3.23;;;;;;;;;;4913457;29;20875;-67
2023/08/30 06:33:35;;;;;;;5.80;3.87;;;;;;;;;;4914581;29;20815;-67
2023/08/30 06:36:02;;;;;;;6.23;3.60;;;;;;;;;;4914817;29;20869;-69
2023/08/30 06:38:31;;;;;;;4.50;2.87;;;;;;;;;;4914534;29;20492;-68
2023/08/30 06:40:59;;;;;;;5.00;3.07;;;;;;;;;;4914216;29;20928;-68
2023/08/30 06:43:26;;;;;;;4.13;3.43;;;;;;;;;;4914459;29;20457;-66
2023/08/30 06:45:53;;;;;;;5.33;3.67;;;;;;;;;;4914476;29;20861;-67
2023/08/30 06:48:21;;;;;;;6.13;2.90;;;;;;;;;;4914534;29;20456;-66
2023/08/30 06:50:48;;;;;;;3.90;3.17;;;;;;;;;;4914835;29;20449;-66
2023/08/30 06:53:15;;;;;;;5.40;3.43;;;;;;;;;;4914738;29;20448;-67
2023/08/30 06:55:43;;;;;;;8.13;3.50;;;;;;;;;;4917665;29;20440;-66
2023/08/30 06:58:10;;;;;;;4.50;2.70;;;;;;;;;;4918069;29;20828;-67
2023/08/30 07:00:37;;;;;;;5.50;3.10;;;;;;;;;;4916924;29;20499;-68
2023/08/30 07:03:05;;;;;;;5.63;4.00;;;;;;;;;;4917450;29;20867;-67
2023/08/30 07:05:32;;;;;;;4.60;3.53;;;;;;;;;;4918462;29;20504;-66
2023/08/30 07:07:59;;;;;;;5.50;3.10;;;;;;;;;;4918387;29;20827;-67
2023/08/30 07:10:26;;;;;;;4.63;3.10;;;;;;;;;;4918298;29;20547;-68
2023/08/30 07:12:54;;;;;;;4.93;3.10;;;;;;;;;;4918584;29;20455;-66
2023/08/30 07:15:21;;;;;;;3.70;2.57;;;;;;;;;;4918939;29;20475;-68
2023/08/30 07:17:48;;;;;;;6.53;3.63;;;;;;;;;;4917698;29;20468;-67
2023/08/30 07:20:16;;;;;;;6.13;2.60;;;;;;;;;;4916232;29;20951;-67
2023/08/30 07:22:43;;;;;;;6.80;3.43;;;;;;;;;;4918098;29;21047;-67
2023/08/30 07:25:13;;;;;;;5.13;3.87;;;;;;;;;;4917813;29;20444;-69
2023/08/30 07:27:40;;;;;;;5.73;2.80;;;;;;;;;;4905950;29;20970;-68
2023/08/30 07:30:09;;;;;;;3.93;2.80;;;;;;;;;;4917887;29;20945;-68
2023/08/30 07:32:37;;;;;;;4.23;2.70;;;;;;;;;;4918296;29;20633;-68
2023/08/30 07:35:05;;;;;;;4.00;2.80;;;;;;;;;;4917823;29;20440;-67
2023/08/30 07:37:32;;;;;;;4.10;3.10;;;;;;;;;;4916261;29;20870;-67
2023/08/30 07:39:59;;;;;;;5.60;2.43;;;;;;;;;;4918028;29;20496;-68
2023/08/30 07:42:26;;;;;;;6.23;3.90;;;;;;;;;;4917894;29;20475;-67
2023/08/30 07:44:53;;;;;;;6.10;2.77;;;;;;;;;;4917663;29;20455;-66
2023/08/30 07:47:22;;;;;;;5.10;3.33;;;;;;;;;;4917863;29;20459;-67
2023/08/30 07:49:49;;;;;;;5.03;2.90;;;;;;;;;;4917422;29;20465;-68
2023/08/30 07:52:16;;;;;;;4.30;2.80;;;;;;;;;;4910773;29;20448;-67
2023/08/30 07:54:43;;;;;;;5.20;3.23;;;;;;;;;;4917060;29;20448;-67
2023/08/30 07:57:10;;;;;;;4.03;2.90;;;;;;;;;;4916441;29;20448;-69
2023/08/30 07:59:37;;;;;;;4.77;2.97;;;;;;;;;;4917420;29;20507;-67
2023/08/30 08:02:06;;;;;;;4.30;2.90;;;;;;;;;;4917882;29;20444;-68
2023/08/30 08:04:34;;;;;;;4.10;2.50;;;;;;;;;;4917448;29;20459;-68
2023/08/30 08:07:01;;;;;;;4.07;2.70;;;;;;;;;;4907020;29;20468;-68
2023/08/30 08:09:28;;;;;;;4.57;3.00;;;;;;;;;;4917118;29;20461;-68
2023/08/30 08:11:56;;;;;;;4.83;3.03;;;;;;;;;;4910035;29;20461;-69
2023/08/30 08:14:23;;;;;;;4.93;2.40;;;;;;;;;;4916702;29;20563;-68
2023/08/30 08:16:50;;;;;;;4.20;2.80;;;;;;;;;;4916401;29;20452;-67
2023/08/30 08:19:17;;;;;;;3.30;2.60;;;;;;;;;;4917409;29;20856;-67
2023/08/30 08:21:45;;;;;;;5.60;2.60;;;;;;;;;;4916993;29;20452;-67
2023/08/30 08:24:12;;;;;;;4.23;2.93;;;;;;;;;;4917397;29;20460;-68
2023/08/30 08:26:39;;;;;;;3.20;2.03;;;;;;;;;;4916970;29;20819;-68
2023/08/30 08:29:07;;;;;;;3.53;2.27;;;;;;;;;;4917071;29;20461;-68
2023/08/30 08:31:34;;;;;;;3.10;2.13;;;;;;;;;;4916274;29;20457;-68
2023/08/30 08:34:08;;;;;;;4.37;2.47;;;;;;;;;;4916623;29;20452;-68
2023/08/30 08:36:35;;;;;;;3.40;2.27;;;;;;;;;;4914329;29;20463;-69
2023/08/30 08:39:04;;;;;;;3.07;1.93;;;;;;;;;;4916597;29;20483;-69
2023/08/30 08:41:34;;;;;;;3.40;2.27;;;;;;;;;;4916694;29;20904;-68
2023/08/30 08:44:02;;;;;;;3.97;2.50;;;;;;;;;;4916977;29;20449;-69
2023/08/30 08:46:31;;;;;;;3.97;2.10;;;;;;;;;;4915745;29;20449;-69
2023/08/30 08:48:58;;;;;;;4.00;2.47;;;;;;;;;;4916533;29;20567;-70
2023/08/30 08:51:26;;;;;;;4.10;2.10;;;;;;;;;;4916499;29;20445;-67
2023/08/30 08:53:53;;;;;;;3.27;2.20;;;;;;;;;;4916082;29;20949;-68
2023/08/30 08:56:22;;;;;;;3.10;2.50;;;;;;;;;;4916355;29;20453;-68
2023/08/30 08:58:49;;;;;;;5.17;2.13;;;;;;;;;;4916016;29;20471;-68
2023/08/30 09:01:17;;;;;;;3.60;2.50;;;;;;;;;;4916873;29;20452;-68
2023/08/30 09:03:44;;;;;;;3.10;1.93;;;;;;;;;;4916114;29;21296;-68
2023/08/30 09:06:11;;;;;;;3.50;2.40;;;;;;;;;;4915961;29;20455;-67
2023/08/30 09:08:38;;;;;;;4.10;2.17;;;;;;;;;;4916316;29;20893;-69
2023/08/30 09:11:05;;;;;;;3.40;2.93;;;;;;;;;;4916339;29;20444;-65
2023/08/30 09:13:36;;;;;;;3.23;1.90;;;;;;;;;;4916643;29;20449;-68
2023/08/30 09:16:04;;;;;;;3.53;1.80;;;;;;;;;;4916636;29;20465;-65
2023/08/30 09:18:31;;;;;;;2.63;1.87;;;;;;;;;;4916816;29;20445;-67
2023/08/30 09:21:06;;;;;;;3.03;2.17;;;;;;;;;;4916507;29;20492;-65
2023/08/30 09:23:34;;;;;;;3.47;2.27;;;;;;;;;;4916327;29;21056;-66
2023/08/30 09:26:02;;;;;;;4.03;1.73;;;;;;;;;;4916096;29;20448;-66
2023/08/30 09:28:29;;;;;;;3.60;2.17;;;;;;;;;;4916690;29;20476;-66
2023/08/30 09:30:58;;;;;;;2.83;1.97;;;;;;;;;;4914290;29;20447;-64
2023/08/30 09:33:31;;;;;;;2.77;1.73;;;;;;;;;;4915898;29;20488;-63
2023/08/30 09:35:58;;;;;;;3.10;1.80;;;;;;;;;;4915889;29;20521;-65
2023/08/30 09:38:25;;;;;;;2.67;1.73;;;;;;;;;;4915151;29;20532;-65
2023/08/30 09:40:52;;;;;;;3.20;2.30;;;;;;;;;;4914930;29;21010;-65
2023/08/30 09:43:21;;;;;;;5.03;2.07;;;;;;;;;;4915323;29;20539;-67
2023/08/30 09:45:48;;;;;;;2.70;1.80;;;;;;;;;;4913836;29;20452;-66
2023/08/30 09:48:17;;;;;;;3.23;1.70;;;;;;;;;;4913686;29;20444;-67
2023/08/30 09:50:48;;;;;;;3.10;1.80;;;;;;;;;;4915320;29;20556;-65
2023/08/30 09:53:16;;;;;;;2.90;1.57;;;;;;;;;;4915673;29;20456;-67
2023/08/30 09:55:44;;;;;;;2.17;1.67;;;;;;;;;;4915407;29;20456;-66
2023/08/30 09:58:11;;;;;;;2.37;1.30;;;;;;;;;;4914851;29;20449;-65
2023/08/30 10:00:39;;;;;;;2.80;1.67;;;;;;;;;;4914638;29;20500;-67
2023/08/30 10:03:06;;;;;;;3.00;1.83;;;;;;;;;;4914380;29;20452;-67
2023/08/30 10:05:36;;;;;;;2.33;1.20;;;;;;;;;;4914225;29;20496;-67
2023/08/30 10:08:04;;;;;;;2.37;1.30;;;;;;;;;;4905174;29;20468;-67
2023/08/30 10:10:32;;;;;;;2.63;1.30;;;;;;;;;;4914148;29;20543;-68
2023/08/30 10:13:00;;;;;;;2.20;1.20;;;;;;;;;;4915281;29;21026;-68
2023/08/30 10:15:27;;;;;;;1.80;1.10;;;;;;;;;;4915330;29;20457;-67
2023/08/30 10:17:55;;;;;;;2.67;1.30;;;;;;;;;;4914240;29;20472;-68
2023/08/30 10:20:23;;;;;;;1.90;1.30;;;;;;;;;;4913802;29;20495;-67
2023/08/30 10:22:52;;;;;;;2.30;1.27;;;;;;;;;;4915248;29;20464;-67
2023/08/30 10:25:20;;;;;;;2.00;1.20;;;;;;;;;;4914792;29;20508;-68
2023/08/30 10:27:48;;;;;;;1.90;1.40;;;;;;;;;;4914985;29;20698;-67
2023/08/30 10:30:16;;;;;;;2.20;1.20;;;;;;;;;;4901512;29;20464;-68
2023/08/30 10:32:44;;;;;;;2.00;1.00;;;;;;;;;;4914983;29;20444;-66
2023/08/30 10:35:12;;;;;;;2.23;1.47;;;;;;;;;;4915636;29;20871;-68
2023/08/30 10:37:39;;;;;;;3.20;1.30;;;;;;;;;;4914170;29;20449;-67
2023/08/30 10:40:09;;;;;;;2.40;1.00;;;;;;;;;;4914319;29;20599;-66
2023/08/30 10:42:36;;;;;;;2.30;1.20;;;;;;;;;;4914439;29;20974;-68
2023/08/30 10:45:04;;;;;;;1.70;0.97;;;;;;;;;;4914635;29;20912;-68
2023/08/30 10:47:31;;;;;;;2.33;1.13;;;;;;;;;;4914278;29;20834;-67
2023/08/30 10:49:59;;;;;;;2.50;1.50;;;;;;;;;;4915404;29;20544;-67
2023/08/30 10:52:27;;;;;;;1.93;1.17;;;;;;;;;;4914864;29;20444;-67
2023/08/30 10:54:54;;;;;;;1.83;1.10;;;;;;;;;;4914234;29;20444;-68
2023/08/30 10:57:25;;;;;;;2.63;1.33;;;;;;;;;;4914356;29;20449;-68
2023/08/30 11:00:09;;;;;;;6.20;1.80;;;;;;;;;;4914284;29;20488;-67
2023/08/30 11:02:36;;;;;;;2.93;1.43;;;;;;;;;;4914979;29;20832;-67
2023/08/30 11:05:04;;;;;;;2.23;1.67;;;;;;;;;;4913996;29;20452;-67
2023/08/30 11:07:31;;;;;;;2.10;1.13;;;;;;;;;;4914770;29;20455;-67
2023/08/30 11:09:59;;;;;;;2.77;1.30;;;;;;;;;;4914754;29;20475;-67
2023/08/30 11:12:29;;;;;;;2.60;1.40;;;;;;;;;;4914403;29;20456;-67
2023/08/30 11:14:57;;;;;;;2.20;1.47;;;;;;;;;;4913388;29;20452;-67
2023/08/30 11:17:24;;;;;;;2.27;1.07;;;;;;;;;;4913921;29;20464;-67
2023/08/30 11:19:52;;;;;;;2.30;1.33;;;;;;;;;;4914484;29;20472;-68
2023/08/30 11:22:20;;;;;;;2.77;1.80;;;;;;;;;;4914693;29;20448;-68
2023/08/30 11:24:49;;;;;;;3.10;1.50;;;;;;;;;;4914436;29;20453;-67
2023/08/30 11:27:18;;;;;;;2.97;1.90;;;;;;;;;;4914619;29;20512;-69
2023/08/30 11:29:46;;;;;;;2.00;1.03;;;;;;;;;;4914542;29;20477;-68
2023/08/30 11:32:13;;;;;;;4.07;2.00;;;;;;;;;;4912656;29;20445;-67
2023/08/30 11:34:40;;;;;;;7.20;3.20;;;;;;;;;;4901549;29;20448;-68
2023/08/30 11:37:08;;;;;;;3.87;1.63;;;;;;;;;;4913416;29;20488;-68
2023/08/30 11:39:36;;;;;;;2.40;1.23;;;;;;;;;;4913982;29;20464;-67
2023/08/30 11:42:06;;;;;;;5.00;2.20;;;;;;;;;;4917281;29;20951;-67
2023/08/30 11:44:33;;;;;;;5.00;2.33;;;;;;;;;;4917982;29;20484;-68
2023/08/30 11:47:02;;;;;;;2.93;2.00;;;;;;;;;;4917626;29;20846;-67
2023/08/30 11:49:29;;;;;;;2.07;1.50;;;;;;;;;;4916044;29;20955;-66
2023/08/30 11:51:58;;;;;;;3.03;1.60;;;;;;;;;;4916280;29;20456;-67
2023/08/30 11:54:26;;;;;;;2.80;1.47;;;;;;;;;;4917361;29;20973;-67
2023/08/30 11:56:54;;;;;;;2.80;1.53;;;;;;;;;;4917324;29;20878;-67
2023/08/30 11:59:24;;;;;;;2.40;1.70;;;;;;;;;;4917646;29;20464;-67
2023/08/30 12:01:51;;;;;;;2.10;1.47;;;;;;;;;;4917689;29;20583;-68
2023/08/30 12:04:19;;;;;;;2.70;1.40;;;;;;;;;;4917293;29;20455;-67
2023/08/30 12:06:52;;;;;;;2.60;1.67;;;;;;;;;;4918273;29;20445;-65
2023/08/30 12:09:21;;;;;;;2.53;1.50;;;;;;;;;;4916172;29;20524;-66
2023/08/30 12:11:48;;;;;;;2.37;1.60;;;;;;;;;;4915218;29;20829;-67
2023/08/30 12:14:16;;;;;;;2.80;1.77;;;;;;;;;;4917337;29;20958;-66
2023/08/30 12:16:45;;;;;;;3.13;1.67;;;;;;;;;;4917293;29;20456;-66
2023/08/30 12:19:13;;;;;;;3.90;1.97;;;;;;;;;;4917438;29;20496;-66
2023/08/30 12:21:44;;;;;;;3.00;1.73;;;;;;;;;;4917414;29;20516;-66
2023/08/30 12:24:12;;;;;;;2.93;1.97;;;;;;;;;;4916730;29;20449;-66
2023/08/30 12:26:40;;;;;;;2.47;1.70;;;;;;;;;;4905122;29;20795;-66
2023/08/30 12:29:07;;;;;;;3.00;2.00;;;;;;;;;;4916120;29;20843;-67
2023/08/30 12:31:35;;;;;;;3.20;1.90;;;;;;;;;;4917205;29;20451;-66
2023/08/30 12:34:02;;;;;;;4.50;1.53;;;;;;;;;;4905159;29;20553;-65
2023/08/30 12:36:30;;;;;;;2.00;1.30;;;;;;;;;;4917474;29;20452;-66
2023/08/30 12:38:58;;;;;;;2.73;1.77;;;;;;;;;;4917125;29;20474;-66
2023/08/30 12:41:25;;;;;;;3.47;1.70;;;;;;;;;;4917080;29;20496;-65
2023/08/30 12:43:52;;;;;;;3.23;1.70;;;;;;;;;;4917107;29;20553;-66
2023/08/30 12:46:18;;;;;;;2.40;1.67;;;;;;;;;;4915577;29;20455;-66
2023/08/30 12:48:46;;;;;;;2.70;1.60;;;;;;;;;;4916439;29;20623;-65
2023/08/30 12:51:14;;;;;;;3.67;1.90;;;;;;;;;;4917221;29;20772;-66
2023/08/30 12:53:41;;;;;;;2.40;1.80;;;;;;;;;;4916118;29;20453;-67
2023/08/30 12:56:10;;;;;;;3.13;1.97;;;;;;;;;;4916743;29;20806;-67
2023/08/30 12:58:37;;;;;;;3.20;1.93;;;;;;;;;;4915953;29;21002;-67
2023/08/30 13:01:04;;;;;;;5.50;2.37;;;;;;;;;;4915634;29;20480;-66
2023/08/30 13:03:31;;;;;;;3.60;1.97;;;;;;;;;;4915075;29;20512;-66
2023/08/30 13:05:59;;;;;;;2.40;1.90;;;;;;;;;;4916084;29;20778;-66
2023/08/30 13:08:26;;;;;;;2.93;1.63;;;;;;;;;;4916305;29;20503;-67
2023/08/30 13:10:53;;;;;;;3.60;1.90;;;;;;;;;;4915892;29;20448;-66
2023/08/30 13:13:22;;;;;;;2.93;1.47;;;;;;;;;;4916517;29;20500;-67
2023/08/30 13:15:49;;;;;;;2.83;1.70;;;;;;;;;;4915537;29;20487;-67
2023/08/30 13:18:16;;;;;;;4.40;2.00;;;;;;;;;;4915191;29;20801;-66
2023/08/30 13:20:44;;;;;;;3.60;2.20;;;;;;;;;;4915865;29;20480;-66
2023/08/30 13:23:11;;;;;;;3.13;2.40;;;;;;;;;;4915497;29;20452;-67
2023/08/30 13:25:40;;;;;;;2.93;1.73;;;;;;;;;;4913814;29;20484;-67
2023/08/30 13:28:07;;;;;;;3.37;2.30;;;;;;;;;;4915454;29;20444;-67
2023/08/30 13:30:35;;;;;;;2.70;1.80;;;;;;;;;;4915756;29;20539;-67
2023/08/30 13:33:02;;;;;;;2.67;1.70;;;;;;;;;;4915783;29;20452;-67
2023/08/30 13:35:29;;;;;;;5.77;2.00;;;;;;;;;;4914884;29;20459;-68
2023/08/30 13:37:57;;;;;;;2.20;1.33;;;;;;;;;;4915626;29;20448;-68
2023/08/30 13:40:25;;;;;;;2.17;1.27;;;;;;;;;;4902806;29;21175;-68
2023/08/30 13:42:52;;;;;;;2.70;1.80;;;;;;;;;;4914072;29;20504;-67
2023/08/30 13:45:19;;;;;;;2.80;1.90;;;;;;;;;;4915550;29;20448;-68
2023/08/30 13:47:47;;;;;;;2.80;1.60;;;;;;;;;;4915208;29;20527;-67
2023/08/30 13:50:15;;;;;;;2.53;1.27;;;;;;;;;;4915303;29;20528;-67
2023/08/30 13:52:42;;;;;;;2.30;1.33;;;;;;;;;;4915593;29;20444;-67
2023/08/30 13:55:09;;;;;;;2.70;2.10;;;;;;;;;;4914861;29;20460;-69
2023/08/30 13:57:36;;;;;;;2.73;1.53;;;;;;;;;;4915017;29;20897;-66
2023/08/30 14:00:09;;;;;;;2.30;1.30;;;;;;;;;;4914480;29;20469;-66
2023/08/30 14:02:36;;;;;;;2.97;1.73;;;;;;;;;;4913547;29;20481;-68
2023/08/30 14:05:05;;;;;;;2.20;1.57;;;;;;;;;;4914977;29;20455;-68
2023/08/30 14:07:32;;;;;;;3.17;1.97;;;;;;;;;;4916204;29;20552;-68
2023/08/30 14:10:00;;;;;;;2.77;1.23;;;;;;;;;;4915969;29;20831;-68
2023/08/30 14:12:27;;;;;;;3.13;1.70;;;;;;;;;;4914897;29;20455;-67
2023/08/30 14:14:54;;;;;;;2.10;1.17;;;;;;;;;;4914729;29;20449;-68
2023/08/30 14:17:22;;;;;;;2.20;1.30;;;;;;;;;;4914973;29;20960;-67
2023/08/30 14:19:49;;;;;;;2.00;1.17;;;;;;;;;;4914436;29;20461;-67
2023/08/30 14:22:19;;;;;;;2.03;1.10;;;;;;;;;;4914027;29;21006;-68
2023/08/30 14:24:46;;;;;;;1.90;1.30;;;;;;;;;;4913664;29;20551;-69
2023/08/30 14:27:14;;;;;;;2.20;1.30;;;;;;;;;;4915465;29;20543;-69
2023/08/30 14:29:41;;;;;;;2.50;1.57;;;;;;;;;;4914238;29;20469;-68
2023/08/30 14:32:08;;;;;;;1.93;1.57;;;;;;;;;;4915315;29;20460;-66
2023/08/30 14:34:35;;;;;;;1.80;1.13;;;;;;;;;;4915398;29;20449;-69
2023/08/30 14:37:03;;;;;;;2.33;1.10;;;;;;;;;;4914827;29;20448;-67
2023/08/30 14:39:31;;;;;;;3.50;2.00;;;;;;;;;;4913134;29;20555;-66
2023/08/30 14:41:58;;;;;;;2.90;1.37;;;;;;;;;;4913474;29;20484;-67
2023/08/30 14:44:26;;;;;;;3.07;1.50;;;;;;;;;;4914810;29;20880;-67
2023/08/30 14:46:53;;;;;;;3.83;1.67;;;;;;;;;;4902231;29;20444;-67